Pioche, Nevada Weather observations

Data are for observation ending at time listed.
 Day   Time    Ave.   Ave.  Ave.  Vector   Max.   Stn.    Total    Solar   Ave.  
  of    of     Air    Rel.  Wind   Wind    Wind   Baro.  Precip.   Rad.    Soil  
Year   Day     Temp.  Hum.  Speed  Dir.    Gust   Pres.                    Temp. 
2015   (PST)    F      %     mph   deg.    mph     mb.     in.     W/m2     F   
------------------------------------------------------------------------------
  26   11:20   51.1    45    9.1   140     14.8   825.6    0.00     682    41.1
  26   11:30   51.7    43    8.9   140     12.9   825.5    0.00     589    41.1
  26   11:40   53.2    40    6.5   138     12.1   825.4    0.00     581    41.2
  26   11:50   52.9    41    8.2   136     12.5   825.4    0.00     463    41.2
  26   12:00   52.6    40    7.6   143     11.0   825.2    0.00     388    41.3
  26   12:10   53.7    37    5.5   129      9.9   825.1    0.00     560    41.3
  26   12:20   55.5    34    5.0   135      9.6   824.9    0.00     593    41.4
  26   12:30   56.0    32    6.6   141     10.0   824.8    0.00     536    41.4
  26   12:40   55.5    33    7.0   137     11.5   824.7    0.00     476    41.5
  26   12:50   55.4    33    7.3   149     10.7   824.6    0.00     430    41.6
  26   13:00   54.8    34    8.3   155     12.2   824.6    0.00     462    41.6
  26   13:10   54.8    33    7.1   154     11.5   824.4    0.00     406    41.8
  26   13:20   55.0    31    7.4   148     12.5   824.3    0.00     399    41.9
  26   13:30   54.9    31    6.9   160     12.3   824.3    0.00     414    42.0
  26   13:40   55.4    30    6.7   154     11.2   824.2    0.00     430    42.0
  26   13:50   55.5    30    6.6   137      9.9   824.1    0.00     337    42.1
  26   14:00   55.8    29    3.9   149      6.3   824.0    0.00     431    42.3
  26   14:10   56.5    29    3.8   144      7.7   823.9    0.00     449    42.4
  26   14:20   57.5    28    2.5   129      7.1   823.9    0.00     423    42.5
  26   14:30   57.7    28    4.2    96      7.2   823.8    0.00     446    42.6
  26   14:40   57.5    29    4.5   103      7.2   823.8    0.00     377    42.7
  26   14:50   57.3    29    2.3   112      7.2   823.6    0.00     323    42.8
  26   15:00   57.5    29    0.9    44      3.1   823.5    0.00     240    42.9
  26   15:10   57.8    29    2.0    71      5.3   823.4    0.00     303    43.0
  26   15:20   57.2    30    2.6   105      4.6   823.4    0.00     219    43.1
  26   15:30   56.5    30    3.0   110      5.5   823.4    0.00     165    43.3
  26   15:40   56.2    30    3.4   108      5.2   823.3    0.00      90    43.4
  26   15:50   55.4    31    3.8   109      5.3   823.2    0.00     143    43.5
  26   16:00   54.6    32    3.5   119      4.6   823.2    0.00      61    43.6
  26   16:10   52.2    36    4.2   142      6.2   823.2    0.00      38    43.7
  26   16:20   53.2    35    4.4   127      8.2   823.2    0.00      29    43.9
  26   16:30   52.9    36    4.3   130      8.4   823.2    0.00      18    43.9
  26   16:40   52.6    37    6.8   132     11.8   823.2    0.00      11    44.0
  26   16:50   52.4    38    7.3   135     10.6   823.2    0.00       7    44.1
  26   17:00   51.7    39    6.6   141      9.6   823.3    0.00       2    44.1
  26   17:10   50.8    40    5.2   140      7.3   823.3    0.00       0    44.2
  26   17:20   50.8    41    6.2   134     11.0   823.3    0.00       0    44.3
  26   17:30   51.4    40    5.9   133     10.2   823.4    0.00       0    44.4
  26   17:40   50.7    41    5.1   134      7.5   823.4    0.00       0    44.4
  26   17:50   50.5    42    5.0   128      8.8   823.5    0.00       0    44.4
  26   18:00   50.6    42    6.4   129      8.9   823.5    0.00       0    44.4
  26   18:10   50.8    42    7.7   130     12.6   823.6    0.00       0    44.4
  26   18:20   49.8    44    6.7   141     10.6   823.6    0.00       0    44.5
  26   18:30   48.9    45    6.1   147      9.2   823.6    0.00       0    44.5
  26   18:40   48.2    46    5.5   145      9.3   823.5    0.00       0    44.5
  26   18:50   47.8    47    4.5   152      7.1   823.5    0.00       0    44.5
  26   19:00   47.4    48    4.2   147      5.6   823.4    0.00       0    44.5
  26   19:10   47.0    48    1.4    89      3.6   823.4    0.00       0    44.5
  26   19:20   44.0    51    1.3   244      3.3   823.5    0.00       0    44.5
  26   19:30   41.4    56    1.5   206      2.6   823.5    0.00       0    44.5
  26   19:40   40.9    58    1.0   181      1.8   823.5    0.00       0    44.5
  26   19:50   41.6    57    2.9   150      4.7   823.5    0.00       0    44.5
  26   20:00   42.0    56    1.5   140      3.1   823.6    0.00       0    44.4
  26   20:10   41.4    57    1.9   138      2.9   823.5    0.00       0    44.4
  26   20:20   41.7    56    3.3   148      4.6   823.4    0.00       0    44.4
  26   20:30   40.5    58    3.7   157      5.8   823.4    0.00       0    44.3
  26   20:40   40.6    58    4.4   149      5.6   823.4    0.00       0    44.3
  26   20:50   40.7    58    4.9   150      5.7   823.5    0.00       0    44.3
  26   21:00   40.5    58    4.2   153      5.2   823.4    0.00       0    44.2
  26   21:10   40.4    59    3.7   159      4.6   823.3    0.00       0    44.2
  26   21:20   41.0    57    3.2   155      4.2   823.4    0.00       0    44.2
  26   21:30   40.0    59    0.9   174      2.3   823.3    0.00       0    44.1
  26   21:40   39.4    60    1.7   192      2.3   823.3    0.00       0    44.1
  26   21:50   40.3    58    3.2   158      4.9   823.3    0.00       0    44.1
  26   22:00   40.7    57    4.2   154      5.4   823.3    0.00       0    44.0
  26   22:10   41.0    57    0.6   148      3.2   823.4    0.00       0    44.0
  26   22:20   41.6    56    1.9   118      8.2   823.5    0.00       0    43.9
  26   22:30   46.9    44    4.3   123      7.3   823.4    0.00       0    43.9
  26   22:40   47.1    44    4.8   140      8.1   823.5    0.00       0    43.8
  26   22:50   46.8    44    3.7   149      6.5   823.5    0.00       0    43.8
  26   23:00   46.6    45    3.3   151      6.8   823.6    0.00       0    43.8
  26   23:10   46.1    46    2.4   136      3.7   823.6    0.00       0    43.7
  26   23:20   45.8    48    1.2   106      3.7   823.6    0.00       0    43.7
  26   23:30   43.7    54    0.6    96      3.1   823.7    0.00       0    43.7
  26   23:40   43.7    54    2.3   102      6.7   823.7    0.00       0    43.6
  26   23:50   42.4    57    1.7   101      3.4   823.7    0.00       0    43.6
  27    0:00   42.1    57    0.7    68      2.0   823.7    0.00       0    43.6
  27    0:10   41.9    58    2.4    82      4.2   823.7    0.00       0    43.5
  27    0:20   41.6    58    3.8    89      5.0   823.7    0.00       0    43.5
  27    0:30   41.8    56    3.7    90      7.7   823.7    0.00       0    43.5
  27    0:40   45.6    47    6.0   104     10.2   823.6    0.00       0    43.4
  27    0:50   45.3    48    2.4    87      8.6   823.6    0.00       0    43.4
  27    1:00   42.5    55    0.2   212      1.2   823.6    0.00       0    43.4
  27    1:10   43.6    54    4.5   134      9.5   823.6    0.00       0    43.4
  27    1:20   45.0    52    3.2   147      6.3   823.5    0.00       0    43.3
  27    1:30   45.0    52    4.1   121      6.6   823.5    0.00       0    43.4
  27    1:40   45.2    51    5.6   132      9.6   823.6    0.00       0    43.3
  27    1:50   44.7    56    8.2   139     13.6   823.8    0.00       0    43.3
  27    2:00   42.8    68    9.5   140     14.6   824.0    0.02       0    43.2
  27    2:10   41.2    72   10.7   148     17.0   824.1    0.00       0    43.3
  27    2:20   39.8    78    9.3   144     16.7   824.2    0.00       0    43.3
  27    2:30   39.0    82   11.2   147     16.4   824.1    0.01       0    43.3
  27    2:40   38.3    85    9.7   148     15.2   824.1    0.00       0    43.2
  27    2:50   38.7    85   10.1   153     18.2   824.1    0.00       0    43.2
  27    3:00   39.1    85    9.6   154     15.9   824.2    0.01       0    43.1
  27    3:10   39.3    85    9.3   151     16.8   824.3    0.02       0    43.1
  27    3:20   38.8    87    9.1   141     13.4   824.5    0.02       0    43.1
  27    3:30   38.5    88    8.8   147     13.9   824.6    0.03       0    43.1
  27    3:40   38.5    88    7.7   133     13.2   824.5    0.01       0    43.0
  27    3:50   38.6    87    8.1   126     14.0   824.4    0.01       0    43.0
  27    4:00   38.6    88    7.6   126     13.7   824.5    0.01       0    43.0
  27    4:10   38.2    88    9.3   123     15.3   824.5    0.03       0    43.0
  27    4:20   37.8    88    7.9   131     14.6   824.6    0.02       0    43.0
  27    4:30   37.6    89    6.1   131      9.8   824.5    0.02       0    42.9
  27    4:40   37.4    89    5.3   110      9.1   824.3    0.01       0    42.9
  27    4:50   37.5    89    1.8    80      5.2   824.1    0.00       0    42.8
  27    5:00   37.2    90    0.9   322      3.5   823.6    0.00       0    42.8
  27    5:10   36.7    92    1.0    50      4.5   823.4    0.00       0    42.8
  27    5:20   36.4    92    2.5   108      5.8   823.6    0.00       0    42.7
  27    5:30   36.5    93    5.3   119      8.0   824.2    0.00       0    42.7
  27    5:40   37.3    92    4.9   148     11.7   824.2    0.00       0    42.7
  27    5:50   37.5    91    4.2   139      7.7   824.3    0.00       0    42.6
  27    6:00   37.5    90    3.7   121      7.6   824.2    0.00       0    42.6
  27    6:10   37.5    89    1.9   100      4.5   824.4    0.00       0    42.6
  27    6:20   37.0    90    2.5   108      4.2   824.3    0.00       0    42.5
  27    6:30   37.6    90    4.2   140      6.3   824.4    0.00       0    42.4
  27    6:40   37.7    89    4.5   146      6.8   824.4    0.00       0    42.4
  27    6:50   37.8    89    2.9   150      5.0   824.5    0.00       2    42.4
  27    7:00   37.8    88    3.0   139      4.3   824.6    0.00       4    42.3
  27    7:10   37.9    89    1.9   117      5.0   824.6    0.00       6    42.3
  27    7:20   37.7    89    4.0   106      6.4   824.6    0.00      19    42.3
  27    7:30   38.0    89    5.2   128      9.6   824.7    0.00      20    42.2
  27    7:40   38.0    89    5.7   120     11.0   824.8    0.00      15    42.2
  27    7:50   37.9    90    4.4   134      7.9   824.8    0.00      27    42.2
  27    8:00   37.8    90    5.1   131      9.9   825.0    0.00      19    42.2
  27    8:10   37.7    91    5.1   135     10.3   825.0    0.00      30    42.2
  27    8:20   37.7    92    5.4   130      8.6   825.0    0.00      48    42.1
  27    8:30   38.0    92    5.9   125      9.9   825.1    0.00      49    42.1
  27    8:40   38.1    92    5.1   122      7.9   825.2    0.00      48    42.1
  27    8:50   38.1    91    5.6   130      9.1   825.2    0.00      32    42.0
  27    9:00   37.9    92    5.3   119     11.2   825.3    0.00      32    42.0
  27    9:10   38.3    92    4.8   111     10.9   825.3    0.00      31    42.0
  27    9:20   38.3    92    5.9   110     11.8   825.4    0.00      42    41.9
  27    9:30   38.4    92    5.9   118     10.2   825.4    0.00      42    42.0
  27    9:40   38.6    92    5.3   112      8.6   825.4    0.00      46    42.0
  27    9:50   38.9    92    6.4   116     10.3   825.4    0.00      50    41.9
  27   10:00   39.1    92    6.2   112     10.4   825.4    0.00      76    42.0
  27   10:10   39.3    92    5.3   120      9.2   825.5    0.00      79    41.9
  27   10:20   39.4    92    5.5   113     10.3   825.5    0.00      75    41.9
  27   10:30   39.4    92    4.1   138      6.8   825.5    0.00      51    41.9
  27   10:40   39.7    93    4.5   109      9.8   825.4    0.00      63    41.9
  27   10:50   40.0    92    5.5   107     12.1   825.3    0.00     110    41.9
  27   11:00   40.3    91    5.7   111     10.4   825.2    0.00     101    41.9
  27   11:10   40.7    91    5.2   126     12.3   825.2    0.00     122    41.9

Return to Pioche, Nevada graphs page.


Western Regional Climate Center,wrcc@dri.edu